sensor_id;sensor_type;location;lat;lon;timestamp;pressure;altitude;pressure_sealevel;temperature;humidity
44926;BME280;30662;51.210;7.656;2023-04-20T00:02:19;150419.22;;;6.46;61.38
44926;BME280;30662;51.210;7.656;2023-04-20T00:04:46;150419.22;;;6.46;60.52
44926;BME280;30662;51.210;7.656;2023-04-20T00:07:12;150406.59;;;6.41;61.28
44926;BME280;30662;51.210;7.656;2023-04-20T00:09:37;150399.03;;;6.38;60.69
44926;BME280;30662;51.210;7.656;2023-04-20T00:12:04;150390.19;;;6.34;63.44
44926;BME280;30662;51.210;7.656;2023-04-20T00:14:30;150382.63;;;6.31;64.32
44926;BME280;30662;51.210;7.656;2023-04-20T00:16:55;150371.25;;;6.26;68.14
44926;BME280;30662;51.210;7.656;2023-04-20T00:19:21;150367.50;;;6.25;67.34
44926;BME280;30662;51.210;7.656;2023-04-20T00:21:47;150348.56;;;6.17;68.26
44926;BME280;30662;51.210;7.656;2023-04-20T00:24:13;150313.22;;;6.03;70.30
44926;BME280;30662;51.210;7.656;2023-04-20T00:26:39;150332.16;;;6.11;72.84
44926;BME280;30662;51.210;7.656;2023-04-20T00:29:05;150308.16;;;6.01;72.49
44926;BME280;30662;51.210;7.656;2023-04-20T00:31:31;150275.34;;;5.88;73.77
44926;BME280;30662;51.210;7.656;2023-04-20T00:33:57;150298.09;;;5.97;76.77
44926;BME280;30662;51.210;7.656;2023-04-20T00:36:23;150330.91;;;6.10;74.31
44926;BME280;30662;51.210;7.656;2023-04-20T00:38:49;150333.41;;;6.11;74.55
44926;BME280;30662;51.210;7.656;2023-04-20T00:41:14;150250.09;;;5.77;76.84
44926;BME280;30662;51.210;7.656;2023-04-20T00:43:51;150275.34;;;5.88;76.68
44926;BME280;30662;51.210;7.656;2023-04-20T00:46:18;150284.19;;;5.91;77.32
44926;BME280;30662;51.210;7.656;2023-04-20T00:48:44;150300.59;;;5.98;77.08
44926;BME280;30662;51.210;7.656;2023-04-20T00:51:11;150300.59;;;5.98;76.45
44926;BME280;30662;51.210;7.656;2023-04-20T00:53:37;150291.78;;;5.94;76.98
44926;BME280;30662;51.210;7.656;2023-04-20T00:56:05;150347.31;;;6.17;76.91
44926;BME280;30662;51.210;7.656;2023-04-20T00:58:31;150300.59;;;5.98;77.82
44926;BME280;30662;51.210;7.656;2023-04-20T01:00:56;150263.97;;;5.83;78.77
44926;BME280;30662;51.210;7.656;2023-04-20T01:03:22;150287.97;;;5.93;78.64
44926;BME280;30662;51.210;7.656;2023-04-20T01:05:48;150324.56;;;6.07;77.68
44926;BME280;30662;51.210;7.656;2023-04-20T01:08:14;150305.63;;;6.00;77.93
44926;BME280;30662;51.210;7.656;2023-04-20T01:10:40;150258.94;;;5.81;80.06
44926;BME280;30662;51.210;7.656;2023-04-20T01:13:06;150289.22;;;5.93;80.83
44926;BME280;30662;51.210;7.656;2023-04-20T01:15:32;150295.56;;;5.96;80.46
44926;BME280;30662;51.210;7.656;2023-04-20T01:17:59;150323.28;;;6.07;79.26
44926;BME280;30662;51.210;7.656;2023-04-20T01:20:25;150306.88;;;6.00;79.18
44926;BME280;30662;51.210;7.656;2023-04-20T01:22:51;150294.31;;;5.95;79.03
44926;BME280;30662;51.210;7.656;2023-04-20T01:25:20;150314.50;;;6.03;79.17
44926;BME280;30662;51.210;7.656;2023-04-20T01:27:46;150277.84;;;5.89;80.42
44926;BME280;30662;51.210;7.656;2023-04-20T01:30:13;150287.97;;;5.93;80.97
44926;BME280;30662;51.210;7.656;2023-04-20T01:32:39;150294.31;;;5.95;80.59
44926;BME280;30662;51.210;7.656;2023-04-20T01:35:07;150275.34;;;5.88;81.43
44926;BME280;30662;51.210;7.656;2023-04-20T01:37:33;150282.94;;;5.91;81.35
44926;BME280;30662;51.210;7.656;2023-04-20T01:39:59;150271.50;;;5.86;80.88
44926;BME280;30662;51.210;7.656;2023-04-20T01:42:25;150290.47;;;5.94;81.32
44926;BME280;30662;51.210;7.656;2023-04-20T01:44:51;150318.25;;;6.05;80.06
44926;BME280;30662;51.210;7.656;2023-04-20T01:47:17;150293.06;;;5.95;81.80
44926;BME280;30662;51.210;7.656;2023-04-20T01:49:43;150269.00;;;5.85;81.31
44926;BME280;30662;51.210;7.656;2023-04-20T01:52:09;150260.19;;;5.81;81.32
44926;BME280;30662;51.210;7.656;2023-04-20T01:54:35;150267.75;;;5.85;80.98
44926;BME280;30662;51.210;7.656;2023-04-20T01:57:02;150252.59;;;5.78;82.28
44926;BME280;30662;51.210;7.656;2023-04-20T01:59:28;150262.72;;;5.82;81.33
44926;BME280;30662;51.210;7.656;2023-04-20T02:01:54;150277.84;;;5.89;81.43
44926;BME280;30662;51.210;7.656;2023-04-20T02:04:20;150272.81;;;5.87;80.97
44926;BME280;30662;51.210;7.656;2023-04-20T02:06:46;150276.59;;;5.88;80.92
44926;BME280;30662;51.210;7.656;2023-04-20T02:09:12;150247.56;;;5.76;81.22
44926;BME280;30662;51.210;7.656;2023-04-20T02:11:38;150262.72;;;5.82;81.84
44926;BME280;30662;51.210;7.656;2023-04-20T02:14:06;150265.22;;;5.84;80.53
44926;BME280;30662;51.210;7.656;2023-04-20T02:16:32;150247.56;;;5.76;81.24
44926;BME280;30662;51.210;7.656;2023-04-20T02:18:58;150287.97;;;5.93;80.66
44926;BME280;30662;51.210;7.656;2023-04-20T02:21:24;150251.34;;;5.78;81.29
44926;BME280;30662;51.210;7.656;2023-04-20T02:23:50;150269.00;;;5.85;80.85
44926;BME280;30662;51.210;7.656;2023-04-20T02:26:16;150277.84;;;5.89;81.29
44926;BME280;30662;51.210;7.656;2023-04-20T02:28:41;150274.09;;;5.87;80.66
44926;BME280;30662;51.210;7.656;2023-04-20T02:31:08;150257.69;;;5.80;80.43
44926;BME280;30662;51.210;7.656;2023-04-20T02:33:33;150231.16;;;5.70;81.63
44926;BME280;30662;51.210;7.656;2023-04-20T02:35:59;150198.38;;;5.57;81.83
44926;BME280;30662;51.210;7.656;2023-04-20T02:38:25;150208.47;;;5.61;83.13
44926;BME280;30662;51.210;7.656;2023-04-20T02:40:52;150242.53;;;5.74;82.44
44926;BME280;30662;51.210;7.656;2023-04-20T02:43:17;150241.28;;;5.74;81.89
44926;BME280;30662;51.210;7.656;2023-04-20T02:45:43;150241.28;;;5.74;80.99
44926;BME280;30662;51.210;7.656;2023-04-20T02:48:09;150229.91;;;5.69;81.04
44926;BME280;30662;51.210;7.656;2023-04-20T02:50:35;150257.69;;;5.80;81.21
44926;BME280;30662;51.210;7.656;2023-04-20T02:53:02;150242.53;;;5.74;81.08
44926;BME280;30662;51.210;7.656;2023-04-20T02:55:28;150190.81;;;5.53;85.32
44926;BME280;30662;51.210;7.656;2023-04-20T02:57:54;150174.41;;;5.47;87.20
44926;BME280;30662;51.210;7.656;2023-04-20T03:00:20;150129.00;;;5.29;89.09
44926;BME280;30662;51.210;7.656;2023-04-20T03:02:46;150121.47;;;5.25;92.12
44926;BME280;30662;51.210;7.656;2023-04-20T03:05:12;150106.31;;;5.19;92.98
44926;BME280;30662;51.210;7.656;2023-04-20T03:07:38;150103.81;;;5.18;94.16
44926;BME280;30662;51.210;7.656;2023-04-20T03:10:04;150106.31;;;5.19;94.15
44926;BME280;30662;51.210;7.656;2023-04-20T03:12:30;150084.91;;;5.11;96.35
44926;BME280;30662;51.210;7.656;2023-04-20T03:14:56;150078.59;;;5.08;98.34
44926;BME280;30662;51.210;7.656;2023-04-20T03:17:22;150068.50;;;5.04;99.84
44926;BME280;30662;51.210;7.656;2023-04-20T03:19:49;150073.53;;;5.06;100.00
44926;BME280;30662;51.210;7.656;2023-04-20T03:22:15;150029.44;;;4.88;100.00
44926;BME280;30662;51.210;7.656;2023-04-20T03:24:43;150031.94;;;4.89;100.00
44926;BME280;30662;51.210;7.656;2023-04-20T03:27:10;150034.47;;;4.90;100.00
44926;BME280;30662;51.210;7.656;2023-04-20T03:29:35;149987.84;;;4.72;100.00
44926;BME280;30662;51.210;7.656;2023-04-20T03:32:02;150020.59;;;4.85;100.00
44926;BME280;30662;51.210;7.656;2023-04-20T03:34:28;150011.78;;;4.81;100.00
44926;BME280;30662;51.210;7.656;2023-04-20T03:36:54;149987.84;;;4.72;100.00
44926;BME280;30662;51.210;7.656;2023-04-20T03:39:19;149952.56;;;4.57;100.00
44926;BME280;30662;51.210;7.656;2023-04-20T03:41:45;149950.06;;;4.56;100.00
44926;BME280;30662;51.210;7.656;2023-04-20T03:44:11;149995.41;;;4.75;100.00
44926;BME280;30662;51.210;7.656;2023-04-20T03:46:38;149961.38;;;4.61;100.00
44926;BME280;30662;51.210;7.656;2023-04-20T03:49:04;149942.47;;;4.53;100.00
44926;BME280;30662;51.210;7.656;2023-04-20T03:51:30;149936.19;;;4.51;100.00
44926;BME280;30662;51.210;7.656;2023-04-20T03:53:56;149962.63;;;4.61;100.00
44926;BME280;30662;51.210;7.656;2023-04-20T03:56:22;149979.00;;;4.68;100.00
44926;BME280;30662;51.210;7.656;2023-04-20T03:58:48;149970.22;;;4.64;100.00
44926;BME280;30662;51.210;7.656;2023-04-20T04:01:14;149971.47;;;4.65;100.00
44926;BME280;30662;51.210;7.656;2023-04-20T04:03:40;149936.19;;;4.51;100.00
44926;BME280;30662;51.210;7.656;2023-04-20T04:06:07;149989.09;;;4.72;100.00
44926;BME280;30662;51.210;7.656;2023-04-20T04:08:33;149957.59;;;4.59;100.00
44926;BME280;30662;51.210;7.656;2023-04-20T04:10:59;149967.66;;;4.63;100.00
44926;BME280;30662;51.210;7.656;2023-04-20T04:13:25;149943.72;;;4.54;100.00
44926;BME280;30662;51.210;7.656;2023-04-20T04:15:51;149977.75;;;4.67;100.00
44926;BME280;30662;51.210;7.656;2023-04-20T04:18:17;149934.91;;;4.50;100.00
44926;BME280;30662;51.210;7.656;2023-04-20T04:20:43;149904.66;;;4.38;100.00
44926;BME280;30662;51.210;7.656;2023-04-20T04:23:09;149908.44;;;4.39;100.00
44926;BME280;30662;51.210;7.656;2023-04-20T04:25:38;149909.69;;;4.40;100.00
44926;BME280;30662;51.210;7.656;2023-04-20T04:28:05;149899.63;;;4.36;100.00
44926;BME280;30662;51.210;7.656;2023-04-20T04:30:32;149894.56;;;4.34;100.00
44926;BME280;30662;51.210;7.656;2023-04-20T04:32:57;149855.50;;;4.18;100.00
44926;BME280;30662;51.210;7.656;2023-04-20T04:35:25;149879.47;;;4.28;100.00
44926;BME280;30662;51.210;7.656;2023-04-20T04:37:51;149888.28;;;4.31;100.00
44926;BME280;30662;51.210;7.656;2023-04-20T04:40:19;149894.56;;;4.34;100.00
44926;BME280;30662;51.210;7.656;2023-04-20T04:42:45;149931.09;;;4.49;100.00
44926;BME280;30662;51.210;7.656;2023-04-20T04:45:12;149882.00;;;4.29;100.00
44926;BME280;30662;51.210;7.656;2023-04-20T04:47:38;149917.28;;;4.43;100.00
44926;BME280;30662;51.210;7.656;2023-04-20T04:50:06;149894.56;;;4.34;100.00
44926;BME280;30662;51.210;7.656;2023-04-20T04:52:33;149887.03;;;4.31;100.00
44926;BME280;30662;51.210;7.656;2023-04-20T04:54:59;149854.25;;;4.18;100.00
44926;BME280;30662;51.210;7.656;2023-04-20T04:57:26;149908.44;;;4.39;100.00
44926;BME280;30662;51.210;7.656;2023-04-20T04:59:52;149929.84;;;4.48;100.00
44926;BME280;30662;51.210;7.656;2023-04-20T05:02:18;149928.59;;;4.48;100.00
44926;BME280;30662;51.210;7.656;2023-04-20T05:04:45;149919.78;;;4.44;100.00
44926;BME280;30662;51.210;7.656;2023-04-20T05:07:11;149931.09;;;4.49;100.00
44926;BME280;30662;51.210;7.656;2023-04-20T05:09:38;149921.03;;;4.45;100.00
44926;BME280;30662;51.210;7.656;2023-04-20T05:12:05;149947.47;;;4.55;100.00
44926;BME280;30662;51.210;7.656;2023-04-20T05:14:31;149962.63;;;4.61;100.00
44926;BME280;30662;51.210;7.656;2023-04-20T05:16:59;149961.38;;;4.61;100.00
44926;BME280;30662;51.210;7.656;2023-04-20T05:19:25;149985.28;;;4.70;100.00
44926;BME280;30662;51.210;7.656;2023-04-20T05:21:50;149965.13;;;4.62;100.00
44926;BME280;30662;51.210;7.656;2023-04-20T05:24:16;149950.06;;;4.56;100.00
44926;BME280;30662;51.210;7.656;2023-04-20T05:26:44;149937.44;;;4.51;100.00
44926;BME280;30662;51.210;7.656;2023-04-20T05:29:10;149931.09;;;4.49;100.00
44926;BME280;30662;51.210;7.656;2023-04-20T05:31:37;149921.03;;;4.45;100.00
44926;BME280;30662;51.210;7.656;2023-04-20T05:34:03;149961.38;;;4.61;100.00
44926;BME280;30662;51.210;7.656;2023-04-20T05:36:29;149966.38;;;4.63;100.00
44926;BME280;30662;51.210;7.656;2023-04-20T05:38:55;149953.81;;;4.58;100.00
44926;BME280;30662;51.210;7.656;2023-04-20T05:41:21;149958.84;;;4.60;100.00
44926;BME280;30662;51.210;7.656;2023-04-20T05:43:52;149992.88;;;4.74;100.00
44926;BME280;30662;51.210;7.656;2023-04-20T05:46:19;149980.25;;;4.68;100.00
44926;BME280;30662;51.210;7.656;2023-04-20T05:48:45;149955.06;;;4.58;100.00
44926;BME280;30662;51.210;7.656;2023-04-20T05:51:11;149952.56;;;4.57;100.00
44926;BME280;30662;51.210;7.656;2023-04-20T05:53:37;149948.75;;;4.56;100.00
44926;BME280;30662;51.210;7.656;2023-04-20T05:56:03;149958.84;;;4.60;100.00
44926;BME280;30662;51.210;7.656;2023-04-20T05:58:33;149971.47;;;4.65;100.00
44926;BME280;30662;51.210;7.656;2023-04-20T06:00:59;149999.16;;;4.76;100.00
44926;BME280;30662;51.210;7.656;2023-04-20T06:03:27;149965.13;;;4.62;100.00
44926;BME280;30662;51.210;7.656;2023-04-20T06:05:54;149975.22;;;4.66;100.00
44926;BME280;30662;51.210;7.656;2023-04-20T06:08:19;149918.53;;;4.43;100.00
44926;BME280;30662;51.210;7.656;2023-04-20T06:10:45;149910.94;;;4.40;100.00
44926;BME280;30662;51.210;7.656;2023-04-20T06:13:11;149941.19;;;4.53;100.00
44926;BME280;30662;51.210;7.656;2023-04-20T06:15:37;149938.69;;;4.52;100.00
44926;BME280;30662;51.210;7.656;2023-04-20T06:18:03;149982.78;;;4.69;100.00
44926;BME280;30662;51.210;7.656;2023-04-20T06:20:29;150015.56;;;4.83;100.00
44926;BME280;30662;51.210;7.656;2023-04-20T06:22:55;150016.81;;;4.83;100.00
44926;BME280;30662;51.210;7.656;2023-04-20T06:25:21;149975.22;;;4.66;100.00
44926;BME280;30662;51.210;7.656;2023-04-20T06:27:47;150002.94;;;4.78;100.00
44926;BME280;30662;51.210;7.656;2023-04-20T06:30:14;149995.41;;;4.75;100.00
44926;BME280;30662;51.210;7.656;2023-04-20T06:32:40;150018.06;;;4.84;100.00
44926;BME280;30662;51.210;7.656;2023-04-20T06:35:07;149943.72;;;4.54;100.00
44926;BME280;30662;51.210;7.656;2023-04-20T06:37:36;149979.00;;;4.68;100.00
44926;BME280;30662;51.210;7.656;2023-04-20T06:40:03;149972.72;;;4.65;100.00
44926;BME280;30662;51.210;7.656;2023-04-20T06:42:35;149970.22;;;4.64;100.00
44926;BME280;30662;51.210;7.656;2023-04-20T06:45:02;149991.63;;;4.73;100.00
44926;BME280;30662;51.210;7.656;2023-04-20T06:47:28;149968.94;;;4.64;100.00
44926;BME280;30662;51.210;7.656;2023-04-20T06:49:59;149980.25;;;4.68;100.00
44926;BME280;30662;51.210;7.656;2023-04-20T06:52:26;149958.84;;;4.60;100.00
44926;BME280;30662;51.210;7.656;2023-04-20T06:54:52;149962.63;;;4.61;100.00
44926;BME280;30662;51.210;7.656;2023-04-20T06:57:18;149950.06;;;4.56;100.00
44926;BME280;30662;51.210;7.656;2023-04-20T06:59:44;149967.66;;;4.63;100.00
44926;BME280;30662;51.210;7.656;2023-04-20T07:02:10;149958.84;;;4.60;100.00
44926;BME280;30662;51.210;7.656;2023-04-20T07:04:36;149962.63;;;4.61;100.00
44926;BME280;30662;51.210;7.656;2023-04-20T07:07:02;150005.50;;;4.79;100.00
44926;BME280;30662;51.210;7.656;2023-04-20T07:09:28;150013.03;;;4.82;100.00
44926;BME280;30662;51.210;7.656;2023-04-20T07:11:54;150036.97;;;4.91;100.00
44926;BME280;30662;51.210;7.656;2023-04-20T07:14:20;150063.47;;;5.02;100.00
44926;BME280;30662;51.210;7.656;2023-04-20T07:16:46;150092.44;;;5.14;100.00
44926;BME280;30662;51.210;7.656;2023-04-20T07:19:12;150079.88;;;5.09;100.00
44926;BME280;30662;51.210;7.656;2023-04-20T07:21:38;150116.41;;;5.23;100.00
44926;BME280;30662;51.210;7.656;2023-04-20T07:24:04;150036.97;;;4.91;100.00
44926;BME280;30662;51.210;7.656;2023-04-20T07:26:30;150016.81;;;4.83;100.00
44926;BME280;30662;51.210;7.656;2023-04-20T07:28:56;150038.22;;;4.92;100.00
44926;BME280;30662;51.210;7.656;2023-04-20T07:31:22;150048.34;;;4.96;100.00
44926;BME280;30662;51.210;7.656;2023-04-20T07:33:47;150081.13;;;5.09;100.00
44926;BME280;30662;51.210;7.656;2023-04-20T07:36:13;150088.66;;;5.12;100.00
44926;BME280;30662;51.210;7.656;2023-04-20T07:38:39;150108.84;;;5.20;100.00
44926;BME280;30662;51.210;7.656;2023-04-20T07:41:08;150074.78;;;5.07;100.00
44926;BME280;30662;51.210;7.656;2023-04-20T07:43:34;150106.31;;;5.19;100.00
44926;BME280;30662;51.210;7.656;2023-04-20T07:46:00;150036.97;;;4.91;100.00
44926;BME280;30662;51.210;7.656;2023-04-20T07:48:26;150005.50;;;4.79;100.00
44926;BME280;30662;51.210;7.656;2023-04-20T07:50:52;150011.78;;;4.81;100.00
44926;BME280;30662;51.210;7.656;2023-04-20T07:53:18;150074.78;;;5.07;100.00
44926;BME280;30662;51.210;7.656;2023-04-20T07:55:43;150107.56;;;5.20;100.00
44926;BME280;30662;51.210;7.656;2023-04-20T07:58:09;150055.88;;;4.99;100.00
44926;BME280;30662;51.210;7.656;2023-04-20T08:00:36;150073.53;;;5.06;100.00
44926;BME280;30662;51.210;7.656;2023-04-20T08:03:03;150097.50;;;5.16;100.00
44926;BME280;30662;51.210;7.656;2023-04-20T08:05:29;150083.63;;;5.10;100.00
44926;BME280;30662;51.210;7.656;2023-04-20T08:07:56;150112.66;;;5.22;100.00
44926;BME280;30662;51.210;7.656;2023-04-20T08:10:23;150125.22;;;5.27;100.00
44926;BME280;30662;51.210;7.656;2023-04-20T08:12:49;150105.06;;;5.19;100.00
44926;BME280;30662;51.210;7.656;2023-04-20T08:15:18;150134.06;;;5.31;100.00
44926;BME280;30662;51.210;7.656;2023-04-20T08:17:43;150117.69;;;5.24;100.00
44926;BME280;30662;51.210;7.656;2023-04-20T08:20:10;150118.94;;;5.24;100.00
44926;BME280;30662;51.210;7.656;2023-04-20T08:22:37;150106.31;;;5.19;100.00
44926;BME280;30662;51.210;7.656;2023-04-20T08:25:03;150082.38;;;5.10;100.00
44926;BME280;30662;51.210;7.656;2023-04-20T08:27:29;150151.72;;;5.38;100.00
44926;BME280;30662;51.210;7.656;2023-04-20T08:29:55;150197.09;;;5.56;100.00
44926;BME280;30662;51.210;7.656;2023-04-20T08:32:22;150144.13;;;5.35;100.00
44926;BME280;30662;51.210;7.656;2023-04-20T08:34:49;150204.69;;;5.59;100.00
44926;BME280;30662;51.210;7.656;2023-04-20T08:37:15;150214.75;;;5.63;100.00
44926;BME280;30662;51.210;7.656;2023-04-20T08:39:41;150180.72;;;5.49;100.00
44926;BME280;30662;51.210;7.656;2023-04-20T08:42:07;150217.28;;;5.64;100.00
44926;BME280;30662;51.210;7.656;2023-04-20T08:44:33;150202.19;;;5.58;100.00
44926;BME280;30662;51.210;7.656;2023-04-20T08:46:59;150144.13;;;5.35;100.00
44926;BME280;30662;51.210;7.656;2023-04-20T08:49:27;150103.81;;;5.18;100.00
44926;BME280;30662;51.210;7.656;2023-04-20T08:51:56;150132.81;;;5.30;100.00
44926;BME280;30662;51.210;7.656;2023-04-20T08:54:22;150137.84;;;5.32;100.00
44926;BME280;30662;51.210;7.656;2023-04-20T08:56:50;150055.88;;;4.99;100.00
44926;BME280;30662;51.210;7.656;2023-04-20T08:59:16;150040.78;;;4.93;100.00
44926;BME280;30662;51.210;7.656;2023-04-20T09:01:43;150068.50;;;5.04;100.00
44926;BME280;30662;51.210;7.656;2023-04-20T09:04:23;150207.22;;;5.60;100.00
44926;BME280;30662;51.210;7.656;2023-04-20T09:06:54;150319.53;;;6.05;100.00
44926;BME280;30662;51.210;7.656;2023-04-20T09:09:23;150388.94;;;6.33;100.00
44926;BME280;30662;51.210;7.656;2023-04-20T09:12:08;150450.75;;;6.58;100.00
44926;BME280;30662;51.210;7.656;2023-04-20T09:14:45;150507.59;;;6.81;100.00
44926;BME280;30662;51.210;7.656;2023-04-20T09:17:13;150501.25;;;6.79;100.00
44926;BME280;30662;51.210;7.656;2023-04-20T09:19:42;150481.06;;;6.71;100.00
44926;BME280;30662;51.210;7.656;2023-04-20T09:22:08;150494.94;;;6.76;100.00
44926;BME280;30662;51.210;7.656;2023-04-20T09:24:36;150503.75;;;6.80;100.00
44926;BME280;30662;51.210;7.656;2023-04-20T09:27:14;150564.41;;;7.04;100.00
44926;BME280;30662;51.210;7.656;2023-04-20T09:29:40;150604.78;;;7.21;100.00
44926;BME280;30662;51.210;7.656;2023-04-20T09:32:06;150616.16;;;7.25;100.00
44926;BME280;30662;51.210;7.656;2023-04-20T09:34:42;150570.69;;;7.07;100.00
44926;BME280;30662;51.210;7.656;2023-04-20T09:37:14;150598.50;;;7.18;100.00
44926;BME280;30662;51.210;7.656;2023-04-20T09:39:42;150611.09;;;7.23;100.00
44926;BME280;30662;51.210;7.656;2023-04-20T09:42:11;150553.00;;;7.00;100.00
44926;BME280;30662;51.210;7.656;2023-04-20T09:44:38;150503.75;;;6.80;100.00
44926;BME280;30662;51.210;7.656;2023-04-20T09:47:05;150489.91;;;6.74;100.00
44926;BME280;30662;51.210;7.656;2023-04-20T09:49:31;150506.34;;;6.81;100.00
44926;BME280;30662;51.210;7.656;2023-04-20T09:51:58;150520.19;;;6.86;100.00
44926;BME280;30662;51.210;7.656;2023-04-20T09:54:27;150531.56;;;6.91;100.00
44926;BME280;30662;51.210;7.656;2023-04-20T09:56:53;150482.31;;;6.71;100.00
44926;BME280;30662;51.210;7.656;2023-04-20T09:59:20;150513.88;;;6.84;100.00
44926;BME280;30662;51.210;7.656;2023-04-20T10:01:46;150527.78;;;6.89;100.00
44926;BME280;30662;51.210;7.656;2023-04-20T10:04:12;150549.25;;;6.98;98.31
44926;BME280;30662;51.210;7.656;2023-04-20T10:06:51;150578.28;;;7.10;99.44
44926;BME280;30662;51.210;7.656;2023-04-20T10:09:24;150559.31;;;7.02;94.12
44926;BME280;30662;51.210;7.656;2023-04-20T10:11:51;150551.75;;;6.99;96.33
44926;BME280;30662;51.210;7.656;2023-04-20T10:14:24;150559.31;;;7.02;94.41
44926;BME280;30662;51.210;7.656;2023-04-20T10:19:24;150473.50;;;6.68;94.36
44926;BME280;30662;51.210;7.656;2023-04-20T10:22:00;150434.38;;;6.52;95.32
44926;BME280;30662;51.210;7.656;2023-04-20T10:24:28;150420.50;;;6.46;98.46
44926;BME280;30662;51.210;7.656;2023-04-20T10:26:54;150397.72;;;6.37;96.69
44926;BME280;30662;51.210;7.656;2023-04-20T10:29:25;150443.19;;;6.55;94.24
44926;BME280;30662;51.210;7.656;2023-04-20T10:31:52;150522.69;;;6.87;95.52
44926;BME280;30662;51.210;7.656;2023-04-20T10:34:31;150602.28;;;7.19;91.89
44926;BME280;30662;51.210;7.656;2023-04-20T10:37:08;150670.47;;;7.47;92.09
44926;BME280;30662;51.210;7.656;2023-04-20T10:39:34;150608.56;;;7.22;90.44
44926;BME280;30662;51.210;7.656;2023-04-20T10:42:02;150579.56;;;7.10;91.64
44926;BME280;30662;51.210;7.656;2023-04-20T10:44:29;150549.25;;;6.98;91.75
44926;BME280;30662;51.210;7.656;2023-04-20T10:46:55;150542.94;;;6.96;91.72
44926;BME280;30662;51.210;7.656;2023-04-20T10:49:26;150547.97;;;6.98;93.30
44926;BME280;30662;51.210;7.656;2023-04-20T10:51:52;150517.66;;;6.85;91.88
44926;BME280;30662;51.210;7.656;2023-04-20T10:54:22;150479.78;;;6.70;93.55
44926;BME280;30662;51.210;7.656;2023-04-20T10:56:49;150556.78;;;7.01;91.85
44926;BME280;30662;51.210;7.656;2023-04-20T10:59:18;150614.91;;;7.25;90.29
44926;BME280;30662;51.210;7.656;2023-04-20T11:01:45;150700.75;;;7.59;89.90
44926;BME280;30662;51.210;7.656;2023-04-20T11:04:11;150799.31;;;7.99;85.14
44926;BME280;30662;51.210;7.656;2023-04-20T11:06:43;150887.78;;;8.35;83.88
44926;BME280;30662;51.210;7.656;2023-04-20T11:09:23;150742.47;;;7.76;82.89
44926;BME280;30662;51.210;7.656;2023-04-20T11:11:58;150724.78;;;7.69;86.54
44926;BME280;30662;51.210;7.656;2023-04-20T11:14:24;150698.25;;;7.58;86.06
44926;BME280;30662;51.210;7.656;2023-04-20T11:16:51;150704.59;;;7.61;86.59
44926;BME280;30662;51.210;7.656;2023-04-20T11:19:31;150736.13;;;7.73;88.09
44926;BME280;30662;51.210;7.656;2023-04-20T11:21:57;150889.09;;;8.35;84.96
44926;BME280;30662;51.210;7.656;2023-04-20T11:24:28;150938.41;;;8.55;81.15
44926;BME280;30662;51.210;7.656;2023-04-20T11:26:56;150963.66;;;8.65;78.91
44926;BME280;30662;51.210;7.656;2023-04-20T11:29:40;150881.44;;;8.32;78.30
44926;BME280;30662;51.210;7.656;2023-04-20T11:32:10;150997.81;;;8.79;77.05
44926;BME280;30662;51.210;7.656;2023-04-20T11:34:38;151066.09;;;9.06;74.90
44926;BME280;30662;51.210;7.656;2023-04-20T11:37:07;151139.44;;;9.36;69.57
44926;BME280;30662;51.210;7.656;2023-04-20T11:39:35;151023.06;;;8.89;71.80
44926;BME280;30662;51.210;7.656;2023-04-20T11:42:02;150982.63;;;8.73;72.99
44926;BME280;30662;51.210;7.656;2023-04-20T11:44:28;150986.41;;;8.74;75.48
44926;BME280;30662;51.210;7.656;2023-04-20T11:46:54;150966.19;;;8.66;76.89
44926;BME280;30662;51.210;7.656;2023-04-20T11:49:25;150872.63;;;8.28;76.30
44926;BME280;30662;51.210;7.656;2023-04-20T11:51:54;150817.00;;;8.06;78.51
44926;BME280;30662;51.210;7.656;2023-04-20T11:54:20;150803.09;;;8.00;79.59
44926;BME280;30662;51.210;7.656;2023-04-20T11:56:50;150811.97;;;8.04;79.88
44926;BME280;30662;51.210;7.656;2023-04-20T11:59:16;151016.75;;;8.87;73.84
44926;BME280;30662;51.210;7.656;2023-04-20T12:01:44;150969.97;;;8.68;72.36
44926;BME280;30662;51.210;7.656;2023-04-20T12:04:10;150952.28;;;8.61;72.57
44926;BME280;30662;51.210;7.656;2023-04-20T12:06:36;151002.84;;;8.81;70.02
44926;BME280;30662;51.210;7.656;2023-04-20T12:09:02;150923.22;;;8.49;71.03
44926;BME280;30662;51.210;7.656;2023-04-20T12:11:30;150803.09;;;8.00;74.12
44926;BME280;30662;51.210;7.656;2023-04-20T12:13:56;150872.63;;;8.28;73.70
44926;BME280;30662;51.210;7.656;2023-04-20T12:16:23;151131.81;;;9.33;72.01
44926;BME280;30662;51.210;7.656;2023-04-20T12:18:48;151201.41;;;9.61;68.34
44926;BME280;30662;51.210;7.656;2023-04-20T12:21:14;151054.69;;;9.02;71.11
44926;BME280;30662;51.210;7.656;2023-04-20T12:23:40;150841.00;;;8.16;73.13
44926;BME280;30662;51.210;7.656;2023-04-20T12:26:07;150817.00;;;8.06;74.24
44926;BME280;30662;51.210;7.656;2023-04-20T12:28:34;150859.97;;;8.23;72.81
44926;BME280;30662;51.210;7.656;2023-04-20T12:31:00;150889.09;;;8.35;71.82
44926;BME280;30662;51.210;7.656;2023-04-20T12:33:26;150935.84;;;8.54;72.67
44926;BME280;30662;51.210;7.656;2023-04-20T12:35:52;151105.28;;;9.22;69.40
44926;BME280;30662;51.210;7.656;2023-04-20T12:38:20;151105.28;;;9.22;69.33
44926;BME280;30662;51.210;7.656;2023-04-20T12:40:45;150997.81;;;8.79;69.41
44926;BME280;30662;51.210;7.656;2023-04-20T12:43:11;150923.22;;;8.49;72.27
44926;BME280;30662;51.210;7.656;2023-04-20T12:45:37;150866.31;;;8.26;74.32
44926;BME280;30662;51.210;7.656;2023-04-20T12:48:03;150805.63;;;8.01;76.17
44926;BME280;30662;51.210;7.656;2023-04-20T12:50:29;150805.63;;;8.01;78.60
44926;BME280;30662;51.210;7.656;2023-04-20T12:52:55;150738.66;;;7.74;80.69
44926;BME280;30662;51.210;7.656;2023-04-20T12:55:24;150715.94;;;7.65;83.09
44926;BME280;30662;51.210;7.656;2023-04-20T12:57:50;150662.88;;;7.44;86.37